Terminal Aerodrome Forecast
Issued by NWS Shreveport, LA

Home | Current Version | Previous Version | Text Only | Print | Product List | Glossary On
Versions: 1 2 3 4 5 6 7 8 9 10 11 12
000
FTUS44 KSHV 292330
TAFELD
TAF
KELD 292330Z 3000/3024 23005KT P6SM SCT050 SCT250
     FM300900 25004KT P6SM VCTS BKN040CB BKN100 BKN250
      TEMPO 3010/3014 3SM -TSRA BR BKN030CB
     FM301700 24008KT P6SM SCT050 SCT130 SCT250=

USA.gov is the U.S. government's official web portal to all federal, state and local government web resources and services.